Belmont, North Carolina
Current Conditions -  °F | °C
As of 9:52 PM on Sunday 23 Nov 2014 (Local Time) from KCLT Reporting Station
Overcast Overcast  
Wind Chill: 18°   Ceiling: 1200
Heat Index: 18°   Visibility: 10mi
Dew Point: 16°   Wind: 15mph
Humidity: 90%   Direction: 160°SSE
Pressure: 29.74"   Gusts: NA
Location:  35.24°N, 81.04°W
Report Text: KCLT 240252Z 16013KT 10SM SCT007 BKN012 BKN060 OVC180 18/16 A2974 RMK AO2 RAE15 SLP069 P0002 60058 T01780161 56026
Loading
Personal Weather Stations






























Interactive Weather Map New forecast layout! Learn more

10-Day Weather Forecast

Advertisements
Track Severe Weather on mobile